Graniteville, Vermont
Current Conditions -  °F | °C
As of 9:51 PM on Friday 21 Nov 2014 (Local Time) from KMPV Reporting Station
Overcast Overcast  
Wind Chill: 10°   Ceiling: 5000
Heat Index: 20°   Visibility: 10mi
Dew Point:   Wind: 8mph
Humidity: 52%   Direction: 290°WNW
Pressure: 30.33"   Gusts: NA
Location:  44.15°N, 72.49°W
Report Text: KMPV 220251Z AUTO 29007KT 10SM OVC050 M07/M15 A3033 RMK AO2 SLP294 T10671150 50003
Loading
Personal Weather Stations






























Interactive Weather Map New forecast layout! Learn more

10-Day Weather Forecast

Advertisements
Track Severe Weather on mobile